Terminal Aerodrome Forecast
Issued by NWS Quad Cities IA IL

Home | Current Version | Previous Version | Graphics & Text | Print | Product List | Glossary On
Versions: 1 2 3 4 5 6 7 8 9 10 11 12 13 14 15 16 17 18 19 20 21 22 23 24 25
000
FTUS43 KDVN 180520
TAFMLI
TAF
KMLI 180520Z 1806/1906 VRB03KT 1 1/2SM BR SKC
     FM180700 00000KT 3/4SM BR SCT250
      TEMPO 1808/1812 1/2SM FZFG BKN004
     FM181400 15007KT 2SM BR SCT120
     FM181600 17013G20KT P6SM BKN150=

USA.gov is the U.S. government's official web portal to all federal, state and local government web resources and services.